DucheSS Of Scandinavia — OUZI2 — position and weather

sailwx.info

Track history (hours):
 
Tides and Currents Weather Stations Pressure Air Temp Water Temp Dewpoint Dewpoint Depression Visibility Wind Speed Wind Dir Waves Ship Positions

DucheSS Of Scandinavia

Operator: DFDS A/S

Last reported at 2016-Aug-31 07:33 UTC. Time now 2016-Aug-31 07:54 UTC.
Position N 59°01' E 010°33'.

Length 134 m; draft 5.2 m.

Type: Passenger vessel. MMSI: 219002929.

Date/timePositionNaut miles runAvg speedWind from/ knotsBaromVisibWave heightAir tempDewpointWater temp
2016-Aug-31 07:33N 59°01' E 010°33'1211.8
2016-Aug-31 06:33N 59°07' E 010°14'1 0.8
2016-Aug-31 05:34N 59°06' E 010°14'0 0.0
2016-Aug-31 04:30N 59°06' E 010°14'0 0.0
2016-Aug-31 03:31N 59°06' E 010°14'0 0.0
2016-Aug-31 02:31N 59°06' E 010°14'0 0.0
2016-Aug-31 01:32N 59°06' E 010°14'0 0.0
2016-Aug-31 00:33N 59°06' E 010°14'0 0.0
2016-Aug-30 23:33N 59°06' E 010°14'0 0.0
2016-Aug-30 22:28N 59°06' E 010°14'0 0.0
2016-Aug-30 21:32N 59°06' E 010°14'0 0.0
2016-Aug-30 20:32N 59°06' E 010°14'1 1.5
2016-Aug-30 19:34N 59°08' E 010°14'7 6.8
2016-Aug-30 18:34N 59°01' E 010°19'1515.1
2016-Aug-30 17:34N 59°02' E 010°49'1212.5
2016-Aug-30 16:34N 58°56' E 011°10'4 3.7
2016-Aug-30 15:34N 58°57' E 011°03'1414.3
2016-Aug-30 14:34N 59°01' E 010°37'1312.6
2016-Aug-30 13:34N 59°06' E 010°14'2 1.6
2016-Aug-30 12:33N 59°08' E 010°14'1111.1
2016-Aug-30 11:34N 59°00' E 010°30'1413.8
2016-Aug-30 10:33N 59°00' E 010°57'8 8.1
2016-Aug-30 09:34N 58°56' E 011°10'6 6.0
2016-Aug-30 08:34N 58°59' E 011°00'1514.5
2016-Aug-30 07:34N 59°01' E 010°32'1211.6
2016-Aug-30 06:34N 59°07' E 010°14'1 0.9
2016-Aug-30 05:33N 59°06' E 010°14'0 0.0
2016-Aug-30 04:32N 59°06' E 010°14'0 0.0
2016-Aug-30 03:30N 59°06' E 010°14'0 0.0
2016-Aug-30 02:31N 59°06' E 010°14'0 0.0
2016-Aug-30 01:31N 59°06' E 010°14'0 0.0
2016-Aug-30 00:32N 59°06' E 010°14'0 0.0
2016-Aug-29 23:33N 59°06' E 010°14'0 0.0
2016-Aug-29 22:30N 59°06' E 010°14'0 0.0
2016-Aug-29 21:28N 59°06' E 010°14'0 0.0
2016-Aug-29 20:32N 59°06' E 010°14'0 0.0
2016-Aug-29 19:32N 59°06' E 010°14'1 1.1
2016-Aug-29 18:34N 59°05' E 010°15'1413.8
2016-Aug-29 17:34N 59°01' E 010°40'1514.7
2016-Aug-29 16:34N 58°56' E 011°07'2 1.9
2016-Aug-29 15:33N 58°57' E 011°04'1414.3
2016-Aug-29 14:33N 59°00' E 010°37'1312.7
2016-Aug-29 13:34N 59°06' E 010°14'2 2.0
2016-Aug-29 12:34N 59°08' E 010°14'10 9.6
2016-Aug-29 11:33N 59°01' E 010°27'1514.7
2016-Aug-29 10:33N 59°00' E 010°55'9 8.9
2016-Aug-29 09:33N 58°56' E 011°10'6 5.6
2016-Aug-29 08:33N 58°59' E 011°01'1514.5
2016-Aug-29 07:33N 59°01' E 010°33'1211.7
2016-Aug-29 06:34N 59°07' E 010°14'1 0.8
2016-Aug-29 05:33N 59°06' E 010°14'0 0.1
2016-Aug-29 04:32N 59°06' E 010°14'0 0.0
2016-Aug-29 03:32N 59°06' E 010°14'0 0.0
2016-Aug-29 02:33N 59°06' E 010°14'0 0.0
2016-Aug-29 01:31N 59°06' E 010°14'0 0.0
2016-Aug-29 00:31N 59°06' E 010°14'0 0.0
2016-Aug-28 23:32N 59°06' E 010°14'0 0.0
2016-Aug-28 22:33N 59°06' E 010°14'0 0.0
2016-Aug-28 21:33N 59°06' E 010°14'0 0.0
2016-Aug-28 20:31N 59°06' E 010°14'0 0.0
2016-Aug-28 19:33N 59°06' E 010°14'0 0.4
2016-Aug-28 18:33N 59°06' E 010°14'1413.8
2016-Aug-28 17:33N 59°01' E 010°39'1615.6
2016-Aug-28 16:33N 58°56' E 011°08'2 2.4
2016-Aug-28 15:33N 58°57' E 011°04'1414.4
2016-Aug-28 14:33N 59°01' E 010°37'1312.6
2016-Aug-28 13:34N 59°06' E 010°14'2 1.8
2016-Aug-28 12:33N 59°07' E 010°14'1110.9
2016-Aug-28 11:34N 59°01' E 010°30'1414.4
2016-Aug-28 10:34N 58°60' E 010°58'7 7.4
2016-Aug-28 09:33N 58°56' E 011°10'6 6.3
2016-Aug-28 08:34N 58°59' E 010°60'1515.0
2016-Aug-28 07:34N 58°60' E 010°31'1211.6
2016-Aug-28 06:34N 59°07' E 010°14'1 1.1
2016-Aug-28 05:34N 59°06' E 010°14'0 0.0
2016-Aug-28 04:32N 59°06' E 010°14'0 0.0
2016-Aug-28 03:32N 59°06' E 010°14'0 0.0
2016-Aug-28 02:33N 59°06' E 010°14'0 0.0
2016-Aug-28 01:31N 59°06' E 010°14'0 0.0
2016-Aug-28 00:31N 59°06' E 010°14'0 0.0
2016-Aug-27 23:32N 59°06' E 010°14'0 0.0
2016-Aug-27 22:33N 59°06' E 010°14'0 0.0
2016-Aug-27 21:31N 59°06' E 010°14'0 0.0
2016-Aug-27 20:31N 59°06' E 010°14'0 0.4
2016-Aug-27 19:34N 59°07' E 010°14'2 2.2
2016-Aug-27 18:33N 59°04' E 010°15'1414.2
2016-Aug-27 17:34N 59°01' E 010°42'1514.5
2016-Aug-27 16:33N 58°56' E 011°08'3 2.5
2016-Aug-27 15:34N 58°57' E 011°04'1414.4
2016-Aug-27 14:33N 59°01' E 010°37'1312.7
2016-Aug-27 13:34N 59°06' E 010°14'2 1.6
2016-Aug-27 12:34N 59°08' E 010°14'1010.2
2016-Aug-27 11:33N 59°01' E 010°28'1514.6
2016-Aug-27 10:34N 59°00' E 010°57'8 8.2
2016-Aug-27 09:33N 58°56' E 011°10'6 6.0
2016-Aug-27 08:34N 58°59' E 011°00'1514.7
2016-Aug-27 07:33N 59°00' E 010°32'1211.6
2016-Aug-27 06:33N 59°07' E 010°14'1 0.5
2016-Aug-27 04:30N 59°06' E 010°14'0 0.0
2016-Aug-27 03:34N 59°06' E 010°14'0 0.0
2016-Aug-27 02:31N 59°06' E 010°14'0 0.0
2016-Aug-27 01:32N 59°06' E 010°14'0 0.0
2016-Aug-27 00:33N 59°06' E 010°14'0 0.0
2016-Aug-26 23:33N 59°06' E 010°14'0 0.0
2016-Aug-26 22:31N 59°06' E 010°14'0 0.0
2016-Aug-26 21:32N 59°06' E 010°14'0 0.0
2016-Aug-26 20:32N 59°06' E 010°14'1 1.1
2016-Aug-26 19:34N 59°07' E 010°14'5 5.1
2016-Aug-26 18:33N 59°02' E 010°15'1414.5
2016-Aug-26 17:33N 59°02' E 010°44'1414.4
2016-Aug-26 16:33N 58°56' E 011°09'4 3.5
2016-Aug-26 15:33N 58°58' E 011°03'1515.1
2016-Aug-26 14:34N 59°01' E 010°34'1212.4
2016-Aug-26 13:33N 59°07' E 010°14'1 0.6
2016-Aug-26 12:34N 59°08' E 010°14'1110.7
2016-Aug-26 11:34N 59°01' E 010°29'1313.1
2016-Aug-26 10:34N 59°01' E 010°55'9 9.2
2016-Aug-26 09:34N 58°56' E 011°10'6 5.7
2016-Aug-26 08:34N 58°59' E 011°01'1515.3
2016-Aug-26 07:34N 59°00' E 010°31'1111.3
2016-Aug-26 06:33N 59°07' E 010°14'1 0.6
2016-Aug-26 04:33N 59°06' E 010°14'0 0.0
2016-Aug-26 03:31N 59°06' E 010°14'0 0.0
2016-Aug-26 02:32N 59°06' E 010°14'0 0.0
2016-Aug-26 01:32N 59°06' E 010°14'0 0.0
2016-Aug-26 00:33N 59°06' E 010°14'0 0.0
2016-Aug-25 23:31N 59°06' E 010°14'0 0.0
2016-Aug-25 22:32N 59°06' E 010°14'0 0.0
2016-Aug-25 21:32N 59°06' E 010°14'0 0.0
2016-Aug-25 20:33N 59°06' E 010°14'0 0.0
2016-Aug-25 19:34N 59°06' E 010°14'1 1.3
2016-Aug-25 18:33N 59°05' E 010°15'1413.9
2016-Aug-25 17:33N 59°01' E 010°41'1515.1
2016-Aug-25 16:33N 58°56' E 011°08'3 2.7
2016-Aug-25 15:34N 58°57' E 011°03'1414.2
2016-Aug-25 14:34N 59°01' E 010°37'1312.6
2016-Aug-25 13:34N 59°06' E 010°14'2 1.9
2016-Aug-25 12:34N 59°08' E 010°14'1010.3
2016-Aug-25 11:34N 59°01' E 010°29'1414.0
2016-Aug-25 10:33N 59°01' E 010°56'9 8.8
2016-Aug-25 09:34N 58°56' E 011°10'6 5.8
2016-Aug-25 08:34N 58°59' E 011°01'1514.6
2016-Aug-25 07:34N 59°01' E 010°32'1211.6
2016-Aug-25 06:33N 59°07' E 010°14'1 0.5
2016-Aug-25 04:31N 59°06' E 010°14'0 0.0
2016-Aug-25 03:32N 59°06' E 010°14'0 0.0
2016-Aug-25 02:32N 59°06' E 010°14'0 0.0
2016-Aug-25 01:33N 59°06' E 010°14'0 0.0
2016-Aug-25 00:31N 59°06' E 010°14'0 0.0
2016-Aug-24 23:31N 59°06' E 010°14'0 0.0
2016-Aug-24 22:32N 59°06' E 010°14'0 0.0
2016-Aug-24 21:30N 59°06' E 010°14'0 0.0
2016-Aug-24 20:30N 59°06' E 010°14'0 0.0
2016-Aug-24 19:34N 59°06' E 010°14'0 0.3
2016-Aug-24 18:33N 59°06' E 010°14'1313.1
2016-Aug-24 17:34N 59°01' E 010°38'1615.6
2016-Aug-24 16:34N 58°56' E 011°07'2 1.7
2016-Aug-24 15:34N 58°57' E 011°04'1414.1
2016-Aug-24 14:34N 59°01' E 010°37'1312.6
2016-Aug-24 13:34N 59°05' E 010°14'2 2.2
2016-Aug-24 12:33N 59°07' E 010°14'1110.5
2016-Aug-24 11:33N 59°01' E 010°29'1413.7
2016-Aug-24 10:34N 59°00' E 010°56'9 8.6
2016-Aug-24 09:33N 58°56' E 011°10'6 6.2
2016-Aug-24 08:34N 58°59' E 010°60'1414.3
2016-Aug-24 07:34N 59°01' E 010°32'1211.6
2016-Aug-24 06:34N 59°07' E 010°14'1 0.4
2016-Aug-24 04:32N 59°06' E 010°14'0 0.0
2016-Aug-24 03:33N 59°06' E 010°14'0 0.0
2016-Aug-24 02:31N 59°06' E 010°14'0 0.0
2016-Aug-24 01:32N 59°06' E 010°14'0 0.0
2016-Aug-24 00:32N 59°06' E 010°14'0 0.0
2016-Aug-23 23:33N 59°06' E 010°14'0 0.0
2016-Aug-23 22:34N 59°06' E 010°14'0 0.0
2016-Aug-23 21:31N 59°06' E 010°14'0 0.0
2016-Aug-23 20:32N 59°06' E 010°14'0 0.0
2016-Aug-23 19:34N 59°06' E 010°14'1 0.7
2016-Aug-23 18:33N 59°06' E 010°14'1313.4
2016-Aug-23 17:34N 59°01' E 010°39'1515.1
2016-Aug-23 16:34N 58°56' E 011°06'1 0.8
2016-Aug-23 15:34N 58°56' E 011°05'1414.2
2016-Aug-23 14:33N 59°00' E 010°39'1313.2
2016-Aug-23 13:34N 59°05' E 010°14'3 2.7
2016-Aug-23 12:34N 59°08' E 010°14'1010.2
2016-Aug-23 11:33N 59°01' E 010°28'1514.6
2016-Aug-23 10:34N 59°00' E 010°57'8 8.1
2016-Aug-23 09:34N 58°56' E 011°10'6 5.9
2016-Aug-23 08:34N 58°59' E 011°00'1414.4
2016-Aug-23 07:34N 59°01' E 010°33'1211.6
2016-Aug-23 06:34N 59°07' E 010°14'1 0.7
2016-Aug-23 05:33N 59°06' E 010°14'0 0.0
2016-Aug-23 04:32N 59°06' E 010°14'0 0.0
2016-Aug-23 03:33N 59°06' E 010°14'0 0.0
2016-Aug-23 02:34N 59°06' E 010°14'0 0.0
2016-Aug-23 01:31N 59°06' E 010°14'0 0.0
2016-Aug-23 00:32N 59°06' E 010°14'0 0.0
2016-Aug-22 23:33N 59°06' E 010°14'0 0.0
2016-Aug-22 22:33N 59°06' E 010°14'0 0.0
2016-Aug-22 21:31N 59°06' E 010°14'0 0.0
2016-Aug-22 20:32N 59°06' E 010°14'0 0.0
2016-Aug-22 19:34N 59°06' E 010°14'0 0.5
2016-Aug-22 18:33N 59°06' E 010°14'1313.3
2016-Aug-22 17:33N 59°01' E 010°38'1515.1
2016-Aug-22 16:33N 58°56' E 011°06'1 0.7
2016-Aug-22 15:34N 58°56' E 011°05'1515.1
2016-Aug-22 14:33N 59°01' E 010°37'1313.0
2016-Aug-22 13:34N 59°06' E 010°14'1 1.4
2016-Aug-22 12:34N 59°08' E 010°14'10 9.6
2016-Aug-22 11:34N 59°01' E 010°27'1414.3
2016-Aug-22 10:33N 59°00' E 010°55'9 9.2
2016-Aug-22 09:33N 58°56' E 011°10'6 6.4
2016-Aug-22 08:33N 58°59' E 010°60'1515.1
2016-Aug-22 07:34N 59°00' E 010°30'1111.0
2016-Aug-22 06:34N 59°07' E 010°14'1 1.2
2016-Aug-22 05:34N 59°06' E 010°14'0 0.0
2016-Aug-22 04:34N 59°06' E 010°14'0 0.0
2016-Aug-22 03:31N 59°06' E 010°14'0 0.0
2016-Aug-22 02:32N 59°06' E 010°14'0 0.0
2016-Aug-22 01:33N 59°06' E 010°14'0 0.0
2016-Aug-22 00:33N 59°06' E 010°14'0 0.0
2016-Aug-21 23:31N 59°06' E 010°14'0 0.0
2016-Aug-21 22:32N 59°06' E 010°14'0 0.0
2016-Aug-21 21:32N 59°06' E 010°14'0 0.0
2016-Aug-21 20:33N 59°06' E 010°14'1 1.0
2016-Aug-21 19:33N 59°07' E 010°14'2 2.3
2016-Aug-21 18:34N 59°05' E 010°15'1414.3
2016-Aug-21 17:33N 59°01' E 010°41'1515.1
2016-Aug-21 16:34N 58°56' E 011°08'2 2.4
2016-Aug-21 15:33N 58°57' E 011°04'1515.3
2016-Aug-21 14:34N 59°01' E 010°36'1212.4
2016-Aug-21 13:33N 59°06' E 010°14'1 1.2
2016-Aug-21 12:34N 59°08' E 010°14'1010.1
2016-Aug-21 11:33N 59°01' E 010°28'1414.5
2016-Aug-21 10:33N 59°00' E 010°56'8 8.4
2016-Aug-21 09:34N 58°56' E 011°10'5 5.1
2016-Aug-21 08:34N 58°58' E 011°01'1515.1
2016-Aug-21 07:33N 59°00' E 010°32'  
Track history (hours):
 
Tides and Currents Weather Stations Pressure Air Temp Water Temp Dewpoint Dewpoint Depression Visibility Wind Speed Wind Dir Waves Ship Positions

DucheSS Of Scandinavia

Operator: DFDS A/S

Last reported at 2016-Aug-31 07:33 UTC. Time now 2016-Aug-31 07:54 UTC.
Position N 59°01' E 010°33'.

Length 134 m; draft 5.2 m.

Type: Passenger vessel. MMSI: 219002929.

Date/timePositionNaut miles runAvg speedWind from/ knotsBaromVisibWave heightAir tempDewpointWater temp
2016-Aug-31 07:33N 59°01' E 010°33'1211.8
2016-Aug-31 06:33N 59°07' E 010°14'1 0.8
2016-Aug-31 05:34N 59°06' E 010°14'0 0.0
2016-Aug-31 04:30N 59°06' E 010°14'0 0.0
2016-Aug-31 03:31N 59°06' E 010°14'0 0.0
2016-Aug-31 02:31N 59°06' E 010°14'0 0.0
2016-Aug-31 01:32N 59°06' E 010°14'0 0.0
2016-Aug-31 00:33N 59°06' E 010°14'0 0.0
2016-Aug-30 23:33N 59°06' E 010°14'0 0.0
2016-Aug-30 22:28N 59°06' E 010°14'0 0.0
2016-Aug-30 21:32N 59°06' E 010°14'0 0.0
2016-Aug-30 20:32N 59°06' E 010°14'1 1.5
2016-Aug-30 19:34N 59°08' E 010°14'7 6.8
2016-Aug-30 18:34N 59°01' E 010°19'1515.1
2016-Aug-30 17:34N 59°02' E 010°49'1212.5
2016-Aug-30 16:34N 58°56' E 011°10'4 3.7
2016-Aug-30 15:34N 58°57' E 011°03'1414.3
2016-Aug-30 14:34N 59°01' E 010°37'1312.6
2016-Aug-30 13:34N 59°06' E 010°14'2 1.6
2016-Aug-30 12:33N 59°08' E 010°14'1111.1
2016-Aug-30 11:34N 59°00' E 010°30'1413.8
2016-Aug-30 10:33N 59°00' E 010°57'8 8.1
2016-Aug-30 09:34N 58°56' E 011°10'6 6.0
2016-Aug-30 08:34N 58°59' E 011°00'1514.5
2016-Aug-30 07:34N 59°01' E 010°32'1211.6
2016-Aug-30 06:34N 59°07' E 010°14'1 0.9
2016-Aug-30 05:33N 59°06' E 010°14'0 0.0
2016-Aug-30 04:32N 59°06' E 010°14'0 0.0
2016-Aug-30 03:30N 59°06' E 010°14'0 0.0
2016-Aug-30 02:31N 59°06' E 010°14'0 0.0
2016-Aug-30 01:31N 59°06' E 010°14'0 0.0
2016-Aug-30 00:32N 59°06' E 010°14'0 0.0
2016-Aug-29 23:33N 59°06' E 010°14'0 0.0
2016-Aug-29 22:30N 59°06' E 010°14'0 0.0
2016-Aug-29 21:28N 59°06' E 010°14'0 0.0
2016-Aug-29 20:32N 59°06' E 010°14'0 0.0
2016-Aug-29 19:32N 59°06' E 010°14'1 1.1
2016-Aug-29 18:34N 59°05' E 010°15'1413.8
2016-Aug-29 17:34N 59°01' E 010°40'1514.7
2016-Aug-29 16:34N 58°56' E 011°07'2 1.9
2016-Aug-29 15:33N 58°57' E 011°04'1414.3
2016-Aug-29 14:33N 59°00' E 010°37'1312.7
2016-Aug-29 13:34N 59°06' E 010°14'2 2.0
2016-Aug-29 12:34N 59°08' E 010°14'10 9.6
2016-Aug-29 11:33N 59°01' E 010°27'1514.7
2016-Aug-29 10:33N 59°00' E 010°55'9 8.9
2016-Aug-29 09:33N 58°56' E 011°10'6 5.6
2016-Aug-29 08:33N 58°59' E 011°01'1514.5
2016-Aug-29 07:33N 59°01' E 010°33'1211.7
2016-Aug-29 06:34N 59°07' E 010°14'1 0.8
2016-Aug-29 05:33N 59°06' E 010°14'0 0.1
2016-Aug-29 04:32N 59°06' E 010°14'0 0.0
2016-Aug-29 03:32N 59°06' E 010°14'0 0.0
2016-Aug-29 02:33N 59°06' E 010°14'0 0.0
2016-Aug-29 01:31N 59°06' E 010°14'0 0.0
2016-Aug-29 00:31N 59°06' E 010°14'0 0.0
2016-Aug-28 23:32N 59°06' E 010°14'0 0.0
2016-Aug-28 22:33N 59°06' E 010°14'0 0.0
2016-Aug-28 21:33N 59°06' E 010°14'0 0.0
2016-Aug-28 20:31N 59°06' E 010°14'0 0.0
2016-Aug-28 19:33N 59°06' E 010°14'0 0.4
2016-Aug-28 18:33N 59°06' E 010°14'1413.8
2016-Aug-28 17:33N 59°01' E 010°39'1615.6
2016-Aug-28 16:33N 58°56' E 011°08'2 2.4
2016-Aug-28 15:33N 58°57' E 011°04'1414.4
2016-Aug-28 14:33N 59°01' E 010°37'1312.6
2016-Aug-28 13:34N 59°06' E 010°14'2 1.8
2016-Aug-28 12:33N 59°07' E 010°14'1110.9
2016-Aug-28 11:34N 59°01' E 010°30'1414.4
2016-Aug-28 10:34N 58°60' E 010°58'7 7.4
2016-Aug-28 09:33N 58°56' E 011°10'6 6.3
2016-Aug-28 08:34N 58°59' E 010°60'1515.0
2016-Aug-28 07:34N 58°60' E 010°31'1211.6
2016-Aug-28 06:34N 59°07' E 010°14'1 1.1
2016-Aug-28 05:34N 59°06' E 010°14'0 0.0
2016-Aug-28 04:32N 59°06' E 010°14'0 0.0
2016-Aug-28 03:32N 59°06' E 010°14'0 0.0
2016-Aug-28 02:33N 59°06' E 010°14'0 0.0
2016-Aug-28 01:31N 59°06' E 010°14'0 0.0
2016-Aug-28 00:31N 59°06' E 010°14'0 0.0
2016-Aug-27 23:32N 59°06' E 010°14'0 0.0
2016-Aug-27 22:33N 59°06' E 010°14'0 0.0
2016-Aug-27 21:31N 59°06' E 010°14'0 0.0
2016-Aug-27 20:31N 59°06' E 010°14'0 0.4
2016-Aug-27 19:34N 59°07' E 010°14'2 2.2
2016-Aug-27 18:33N 59°04' E 010°15'1414.2
2016-Aug-27 17:34N 59°01' E 010°42'1514.5
2016-Aug-27 16:33N 58°56' E 011°08'3 2.5
2016-Aug-27 15:34N 58°57' E 011°04'1414.4
2016-Aug-27 14:33N 59°01' E 010°37'1312.7
2016-Aug-27 13:34N 59°06' E 010°14'2 1.6
2016-Aug-27 12:34N 59°08' E 010°14'1010.2
2016-Aug-27 11:33N 59°01' E 010°28'1514.6
2016-Aug-27 10:34N 59°00' E 010°57'8 8.2
2016-Aug-27 09:33N 58°56' E 011°10'6 6.0
2016-Aug-27 08:34N 58°59' E 011°00'1514.7
2016-Aug-27 07:33N 59°00' E 010°32'1211.6
2016-Aug-27 06:33N 59°07' E 010°14'1 0.5
2016-Aug-27 04:30N 59°06' E 010°14'0 0.0
2016-Aug-27 03:34N 59°06' E 010°14'0 0.0
2016-Aug-27 02:31N 59°06' E 010°14'0 0.0
2016-Aug-27 01:32N 59°06' E 010°14'0 0.0
2016-Aug-27 00:33N 59°06' E 010°14'0 0.0
2016-Aug-26 23:33N 59°06' E 010°14'0 0.0
2016-Aug-26 22:31N 59°06' E 010°14'0 0.0
2016-Aug-26 21:32N 59°06' E 010°14'0 0.0
2016-Aug-26 20:32N 59°06' E 010°14'1 1.1
2016-Aug-26 19:34N 59°07' E 010°14'5 5.1
2016-Aug-26 18:33N 59°02' E 010°15'1414.5
2016-Aug-26 17:33N 59°02' E 010°44'1414.4
2016-Aug-26 16:33N 58°56' E 011°09'4 3.5
2016-Aug-26 15:33N 58°58' E 011°03'1515.1
2016-Aug-26 14:34N 59°01' E 010°34'1212.4
2016-Aug-26 13:33N 59°07' E 010°14'1 0.6
2016-Aug-26 12:34N 59°08' E 010°14'1110.7
2016-Aug-26 11:34N 59°01' E 010°29'1313.1
2016-Aug-26 10:34N 59°01' E 010°55'9 9.2
2016-Aug-26 09:34N 58°56' E 011°10'6 5.7
2016-Aug-26 08:34N 58°59' E 011°01'1515.3
2016-Aug-26 07:34N 59°00' E 010°31'1111.3
2016-Aug-26 06:33N 59°07' E 010°14'1 0.6
2016-Aug-26 04:33N 59°06' E 010°14'0 0.0
2016-Aug-26 03:31N 59°06' E 010°14'0 0.0
2016-Aug-26 02:32N 59°06' E 010°14'0 0.0
2016-Aug-26 01:32N 59°06' E 010°14'0 0.0
2016-Aug-26 00:33N 59°06' E 010°14'0 0.0
2016-Aug-25 23:31N 59°06' E 010°14'0 0.0
2016-Aug-25 22:32N 59°06' E 010°14'0 0.0
2016-Aug-25 21:32N 59°06' E 010°14'0 0.0
2016-Aug-25 20:33N 59°06' E 010°14'0 0.0
2016-Aug-25 19:34N 59°06' E 010°14'1 1.3
2016-Aug-25 18:33N 59°05' E 010°15'1413.9
2016-Aug-25 17:33N 59°01' E 010°41'1515.1
2016-Aug-25 16:33N 58°56' E 011°08'3 2.7
2016-Aug-25 15:34N 58°57' E 011°03'1414.2
2016-Aug-25 14:34N 59°01' E 010°37'1312.6
2016-Aug-25 13:34N 59°06' E 010°14'2 1.9
2016-Aug-25 12:34N 59°08' E 010°14'1010.3
2016-Aug-25 11:34N 59°01' E 010°29'1414.0
2016-Aug-25 10:33N 59°01' E 010°56'9 8.8
2016-Aug-25 09:34N 58°56' E 011°10'6 5.8
2016-Aug-25 08:34N 58°59' E 011°01'1514.6
2016-Aug-25 07:34N 59°01' E 010°32'1211.6
2016-Aug-25 06:33N 59°07' E 010°14'1 0.5
2016-Aug-25 04:31N 59°06' E 010°14'0 0.0
2016-Aug-25 03:32N 59°06' E 010°14'0 0.0
2016-Aug-25 02:32N 59°06' E 010°14'0 0.0
2016-Aug-25 01:33N 59°06' E 010°14'0 0.0
2016-Aug-25 00:31N 59°06' E 010°14'0 0.0
2016-Aug-24 23:31N 59°06' E 010°14'0 0.0
2016-Aug-24 22:32N 59°06' E 010°14'0 0.0
2016-Aug-24 21:30N 59°06' E 010°14'0 0.0
2016-Aug-24 20:30N 59°06' E 010°14'0 0.0
2016-Aug-24 19:34N 59°06' E 010°14'0 0.3
2016-Aug-24 18:33N 59°06' E 010°14'1313.1
2016-Aug-24 17:34N 59°01' E 010°38'1615.6
2016-Aug-24 16:34N 58°56' E 011°07'2 1.7
2016-Aug-24 15:34N 58°57' E 011°04'1414.1
2016-Aug-24 14:34N 59°01' E 010°37'1312.6
2016-Aug-24 13:34N 59°05' E 010°14'2 2.2
2016-Aug-24 12:33N 59°07' E 010°14'1110.5
2016-Aug-24 11:33N 59°01' E 010°29'1413.7
2016-Aug-24 10:34N 59°00' E 010°56'9 8.6
2016-Aug-24 09:33N 58°56' E 011°10'6 6.2
2016-Aug-24 08:34N 58°59' E 010°60'1414.3
2016-Aug-24 07:34N 59°01' E 010°32'1211.6
2016-Aug-24 06:34N 59°07' E 010°14'1 0.4
2016-Aug-24 04:32N 59°06' E 010°14'0 0.0
2016-Aug-24 03:33N 59°06' E 010°14'0 0.0
2016-Aug-24 02:31N 59°06' E 010°14'0 0.0
2016-Aug-24 01:32N 59°06' E 010°14'0 0.0
2016-Aug-24 00:32N 59°06' E 010°14'0 0.0
2016-Aug-23 23:33N 59°06' E 010°14'0 0.0
2016-Aug-23 22:34N 59°06' E 010°14'0 0.0
2016-Aug-23 21:31N 59°06' E 010°14'0 0.0
2016-Aug-23 20:32N 59°06' E 010°14'0 0.0
2016-Aug-23 19:34N 59°06' E 010°14'1 0.7
2016-Aug-23 18:33N 59°06' E 010°14'1313.4
2016-Aug-23 17:34N 59°01' E 010°39'1515.1
2016-Aug-23 16:34N 58°56' E 011°06'1 0.8
2016-Aug-23 15:34N 58°56' E 011°05'1414.2
2016-Aug-23 14:33N 59°00' E 010°39'1313.2
2016-Aug-23 13:34N 59°05' E 010°14'3 2.7
2016-Aug-23 12:34N 59°08' E 010°14'1010.2
2016-Aug-23 11:33N 59°01' E 010°28'1514.6
2016-Aug-23 10:34N 59°00' E 010°57'8 8.1
2016-Aug-23 09:34N 58°56' E 011°10'6 5.9
2016-Aug-23 08:34N 58°59' E 011°00'1414.4
2016-Aug-23 07:34N 59°01' E 010°33'1211.6
2016-Aug-23 06:34N 59°07' E 010°14'1 0.7
2016-Aug-23 05:33N 59°06' E 010°14'0 0.0
2016-Aug-23 04:32N 59°06' E 010°14'0 0.0
2016-Aug-23 03:33N 59°06' E 010°14'0 0.0
2016-Aug-23 02:34N 59°06' E 010°14'0 0.0
2016-Aug-23 01:31N 59°06' E 010°14'0 0.0
2016-Aug-23 00:32N 59°06' E 010°14'0 0.0
2016-Aug-22 23:33N 59°06' E 010°14'0 0.0
2016-Aug-22 22:33N 59°06' E 010°14'0 0.0
2016-Aug-22 21:31N 59°06' E 010°14'0 0.0
2016-Aug-22 20:32N 59°06' E 010°14'0 0.0
2016-Aug-22 19:34N 59°06' E 010°14'0 0.5
2016-Aug-22 18:33N 59°06' E 010°14'1313.3
2016-Aug-22 17:33N 59°01' E 010°38'1515.1
2016-Aug-22 16:33N 58°56' E 011°06'1 0.7
2016-Aug-22 15:34N 58°56' E 011°05'1515.1
2016-Aug-22 14:33N 59°01' E 010°37'1313.0
2016-Aug-22 13:34N 59°06' E 010°14'1 1.4
2016-Aug-22 12:34N 59°08' E 010°14'10 9.6
2016-Aug-22 11:34N 59°01' E 010°27'1414.3
2016-Aug-22 10:33N 59°00' E 010°55'9 9.2
2016-Aug-22 09:33N 58°56' E 011°10'6 6.4
2016-Aug-22 08:33N 58°59' E 010°60'1515.1
2016-Aug-22 07:34N 59°00' E 010°30'1111.0
2016-Aug-22 06:34N 59°07' E 010°14'1 1.2
2016-Aug-22 05:34N 59°06' E 010°14'0 0.0
2016-Aug-22 04:34N 59°06' E 010°14'0 0.0
2016-Aug-22 03:31N 59°06' E 010°14'0 0.0
2016-Aug-22 02:32N 59°06' E 010°14'0 0.0
2016-Aug-22 01:33N 59°06' E 010°14'0 0.0
2016-Aug-22 00:33N 59°06' E 010°14'0 0.0
2016-Aug-21 23:31N 59°06' E 010°14'0 0.0
2016-Aug-21 22:32N 59°06' E 010°14'0 0.0
2016-Aug-21 21:32N 59°06' E 010°14'0 0.0
2016-Aug-21 20:33N 59°06' E 010°14'1 1.0
2016-Aug-21 19:33N 59°07' E 010°14'2 2.3
2016-Aug-21 18:34N 59°05' E 010°15'1414.3
2016-Aug-21 17:33N 59°01' E 010°41'1515.1
2016-Aug-21 16:34N 58°56' E 011°08'2 2.4
2016-Aug-21 15:33N 58°57' E 011°04'1515.3
2016-Aug-21 14:34N 59°01' E 010°36'1212.4
2016-Aug-21 13:33N 59°06' E 010°14'1 1.2
2016-Aug-21 12:34N 59°08' E 010°14'1010.1
2016-Aug-21 11:33N 59°01' E 010°28'1414.5
2016-Aug-21 10:33N 59°00' E 010°56'8 8.4
2016-Aug-21 09:34N 58°56' E 011°10'5 5.1
2016-Aug-21 08:34N 58°58' E 011°01'1515.1
2016-Aug-21 07:33N 59°00' E 010°32'  

Dump ship's entire track history